Time;durP1;ratioP1;P1;durP2;ratioP2;P2;SDS_P1;SDS_P2;PMS_P1;PMS_P2;Temp;Humidity;BMP_temperature;BMP_pressure;BME280_temperature;BME280_humidity;BME280_pressure;Samples;Min_cycle;Max_cycle;Signal;HPM_P1;HPM_P2
2021/06/03 00:00:38;;;;;;;3.72;2.72;;;12.80;68.70;;;;;;5045408;28;20459;-79
2021/06/03 00:03:08;;;;;;;3.65;3.05;;;12.80;70.20;;;;;;5070901;28;20114;-79
2021/06/03 00:05:39;;;;;;;4.25;3.10;;;12.70;70.30;;;;;;5046099;28;20619;-78
2021/06/03 00:08:06;;;;;;;3.83;3.22;;;12.70;71.40;;;;;;5070498;28;20021;-79
2021/06/03 00:10:36;;;;;;;3.38;3.08;;;12.60;70.10;;;;;;5051730;28;20024;-78
2021/06/03 00:13:03;;;;;;;3.92;3.10;;;12.60;69.80;;;;;;5067429;28;20036;-78
2021/06/03 00:15:29;;;;;;;4.15;3.35;;;12.70;69.40;;;;;;5068404;28;20020;-79
2021/06/03 00:17:56;;;;;;;4.28;3.40;;;12.70;70.60;;;;;;5069364;28;20016;-79
2021/06/03 00:20:26;;;;;;;2.95;2.70;;;12.70;70.20;;;;;;5067005;28;20125;-79
2021/06/03 00:22:51;;;;;;;4.90;2.90;;;12.60;70.70;;;;;;5071438;28;20112;-79
2021/06/03 00:25:17;;;;;;;6.03;3.22;;;12.60;70.50;;;;;;5072116;28;20056;-79
2021/06/03 00:27:43;;;;;;;3.72;3.08;;;12.60;70.10;;;;;;5070911;28;20016;-79
2021/06/03 00:30:10;;;;;;;3.67;3.33;;;12.50;70.70;;;;;;5064432;28;20039;-78
2021/06/03 00:32:35;;;;;;;5.78;2.90;;;12.40;71.20;;;;;;5067258;28;20367;-80
2021/06/03 00:35:02;;;;;;;4.15;3.13;;;12.40;71.80;;;;;;5065902;28;20025;-79
2021/06/03 00:37:28;;;;;;;4.65;3.22;;;12.30;71.50;;;;;;5064604;28;20023;-79
2021/06/03 00:39:53;;;;;;;3.88;3.20;;;12.30;71.30;;;;;;5069324;28;20119;-78
2021/06/03 00:42:19;;;;;;;6.15;3.28;;;12.30;72.00;;;;;;5073723;28;20024;-79
2021/06/03 00:44:45;;;;;;;2.90;2.67;;;12.20;71.50;;;;;;5050947;28;20111;-78
2021/06/03 00:47:11;;;;;;;3.55;3.25;;;12.20;72.50;;;;;;5068324;28;20059;-78
2021/06/03 00:49:37;;;;;;;4.63;3.20;;;12.10;72.80;;;;;;5064942;28;20056;-79
2021/06/03 00:52:03;;;;;;;3.42;3.10;;;12.10;72.30;;;;;;5069682;28;20032;-78
2021/06/03 00:54:29;;;;;;;4.68;4.28;;;12.10;72.10;;;;;;5051773;28;20119;-78
2021/06/03 00:56:55;;;;;;;3.70;3.30;;;12.10;72.30;;;;;;5047603;28;20456;-78
2021/06/03 00:59:20;;;;;;;4.47;3.58;;;12.10;72.30;;;;;;5070679;28;20021;-79
2021/06/03 01:01:46;;;;;;;4.18;3.40;;;12.10;72.30;;;;;;5070633;28;20103;-79
2021/06/03 01:04:16;;;;;;;3.55;3.22;;;12.10;71.90;;;;;;5046881;28;20071;-78
2021/06/03 01:06:43;;;;;;;3.63;3.33;;;12.20;72.00;;;;;;5068354;28;20535;-80
2021/06/03 01:09:28;;;;;;;3.42;3.17;;;12.10;72.80;;;;;;5070448;28;20115;-78
2021/06/03 01:12:01;;;;;;;4.57;3.60;;;12.10;72.50;;;;;;5072910;28;20029;-78
2021/06/03 01:14:30;;;;;;;3.78;3.08;;;12.10;72.20;;;;;;5079508;28;20035;-79
2021/06/03 01:16:58;;;;;;;3.20;2.90;;;12.10;72.40;;;;;;5047440;28;20040;-79
2021/06/03 01:19:32;;;;;;;3.20;2.90;;;12.10;72.80;;;;;;5074098;28;20021;-79
2021/06/03 01:22:04;;;;;;;4.13;3.72;;;12.10;72.00;;;;;;5072080;28;20037;-78
2021/06/03 01:24:32;;;;;;;4.05;2.90;;;12.10;72.30;;;;;;5072584;28;20024;-78
2021/06/03 01:27:05;;;;;;;3.53;2.97;;;11.80;73.50;;;;;;5054053;28;20143;-79
2021/06/03 01:30:00;;;;;;;2.90;2.63;;;11.60;74.00;;;;;;5069066;28;20036;-78
2021/06/03 01:32:28;;;;;;;3.78;3.00;;;11.50;74.20;;;;;;5033720;28;20063;-79
2021/06/03 01:34:54;;;;;;;6.05;3.35;;;11.60;73.60;;;;;;5072228;28;20084;-78
2021/06/03 01:37:21;;;;;;;4.90;3.00;;;11.60;73.10;;;;;;5055161;28;20058;-79
2021/06/03 01:39:47;;;;;;;3.20;2.85;;;11.70;73.60;;;;;;5078609;28;20032;-79
2021/06/03 01:42:16;;;;;;;4.22;3.53;;;11.60;74.00;;;;;;5056803;28;20713;-79
2021/06/03 01:44:43;;;;;;;4.05;2.92;;;11.60;73.90;;;;;;5074375;28;20087;-79
2021/06/03 01:47:10;;;;;;;4.25;3.22;;;11.60;73.50;;;;;;5075071;28;20032;-78
2021/06/03 01:49:36;;;;;;;4.22;3.78;;;11.70;74.10;;;;;;5076265;28;20033;-78
2021/06/03 01:52:04;;;;;;;5.15;3.42;;;11.60;75.30;;;;;;5060315;28;20081;-79
2021/06/03 01:54:31;;;;;;;;;;;11.60;74.80;;;;;;5081106;28;20034;-79
2021/06/03 01:56:57;;;;;;;4.75;3.60;;;11.60;74.70;;;;;;5059608;28;20355;-79
2021/06/03 01:59:23;;;;;;;5.28;3.78;;;11.60;74.20;;;;;;5063218;28;20048;-80
2021/06/03 02:01:49;;;;;;;4.85;4.45;;;11.60;74.20;;;;;;5074734;28;20036;-80
2021/06/03 02:04:16;;;;;;;4.03;3.63;;;11.60;73.90;;;;;;5074929;28;20033;-79
2021/06/03 02:06:43;;;;;;;4.53;3.00;;;11.60;74.60;;;;;;5070267;28;20028;-80
2021/06/03 02:09:10;;;;;;;4.88;3.70;;;11.60;75.20;;;;;;5078660;28;20390;-81
2021/06/03 02:11:44;;;;;;;3.53;3.22;;;11.50;75.70;;;;;;5066522;28;20367;-80
2021/06/03 02:14:13;;;;;;;5.10;3.58;;;11.50;75.90;;;;;;5078515;28;20112;-80
2021/06/03 02:16:48;;;;;;;4.63;3.03;;;11.50;75.00;;;;;;5083364;28;20027;-79
2021/06/03 02:19:19;;;;;;;3.30;3.00;;;11.50;73.50;;;;;;5080344;28;20028;-79
2021/06/03 02:21:47;;;;;;;4.10;3.70;;;11.60;73.90;;;;;;5066724;28;20043;-80
2021/06/03 02:24:13;;;;;;;4.10;3.45;;;11.60;74.40;;;;;;5053136;28;20513;-80
2021/06/03 02:26:41;;;;;;;3.88;2.90;;;11.60;74.20;;;;;;5077549;28;20540;-80
2021/06/03 02:29:08;;;;;;;3.93;3.27;;;11.60;73.60;;;;;;5070120;28;20028;-79
2021/06/03 02:31:34;;;;;;;4.32;3.22;;;11.60;73.30;;;;;;5076366;28;20051;-80
2021/06/03 02:34:00;;;;;;;5.43;3.58;;;11.60;73.90;;;;;;5070323;28;20518;-79
2021/06/03 02:36:29;;;;;;;4.90;3.45;;;11.50;73.40;;;;;;5075332;28;20115;-78
2021/06/03 02:38:56;;;;;;;6.35;3.90;;;11.40;75.00;;;;;;5075521;28;20429;-78
2021/06/03 02:41:23;;;;;;;4.00;3.60;;;11.30;75.20;;;;;;5070003;28;20092;-78
2021/06/03 02:43:49;;;;;;;4.45;3.40;;;11.30;75.10;;;;;;5059078;28;20032;-79
2021/06/03 02:46:18;;;;;;;3.60;3.30;;;11.30;75.80;;;;;;5072956;28;20021;-80
2021/06/03 02:48:44;;;;;;;4.22;3.83;;;11.30;74.90;;;;;;5070913;28;20048;-78
2021/06/03 02:51:10;;;;;;;4.68;3.85;;;11.30;75.20;;;;;;5062007;28;20057;-78
2021/06/03 02:53:37;;;;;;;5.00;3.47;;;11.20;75.40;;;;;;5074791;28;20688;-79
2021/06/03 02:56:04;;;;;;;3.88;3.40;;;11.30;75.40;;;;;;5050073;28;20028;-79
2021/06/03 02:58:29;;;;;;;4.47;3.10;;;11.30;75.10;;;;;;5074939;28;20609;-78
2021/06/03 03:00:55;;;;;;;3.88;3.47;;;11.30;75.30;;;;;;5071463;28;20029;-79
2021/06/03 03:03:21;;;;;;;3.60;3.28;;;11.20;76.80;;;;;;5073304;28;20085;-78
2021/06/03 03:05:47;;;;;;;4.63;3.78;;;11.10;76.50;;;;;;5075761;28;20115;-80
2021/06/03 03:08:13;;;;;;;4.97;3.08;;;11.20;76.00;;;;;;5065768;28;20176;-80
2021/06/03 03:10:45;;;;;;;4.53;3.10;;;11.20;74.20;;;;;;5079444;28;20024;-80
2021/06/03 03:13:13;;;;;;;4.13;3.53;;;11.00;73.20;;;;;;5077101;28;20510;-79
2021/06/03 03:15:39;;;;;;;6.25;3.75;;;10.90;75.90;;;;;;5072651;28;20531;-79
2021/06/03 03:18:06;;;;;;;3.65;3.35;;;10.70;78.00;;;;;;5075003;28;20495;-78
2021/06/03 03:20:33;;;;;;;4.85;4.35;;;10.50;78.70;;;;;;5058839;28;20012;-78
2021/06/03 03:22:59;;;;;;;3.85;3.35;;;10.40;78.30;;;;;;5073381;28;20138;-79
2021/06/03 03:25:27;;;;;;;4.03;3.50;;;10.60;78.00;;;;;;5071127;28;20031;-79
2021/06/03 03:27:54;;;;;;;6.55;3.83;;;10.70;77.30;;;;;;5080048;28;20009;-79
2021/06/03 03:30:23;;;;;;;4.22;3.20;;;10.80;77.60;;;;;;5076931;28;20044;-79
2021/06/03 03:32:49;;;;;;;5.22;3.28;;;10.90;76.80;;;;;;5083249;28;20502;-78
2021/06/03 03:35:16;;;;;;;4.57;3.80;;;10.80;77.10;;;;;;5048039;28;20044;-79
2021/06/03 03:37:43;;;;;;;4.38;3.35;;;11.00;76.70;;;;;;5057929;28;20021;-78
2021/06/03 03:40:12;;;;;;;6.13;3.50;;;11.00;77.80;;;;;;5075419;28;20033;-80
2021/06/03 03:42:38;;;;;;;5.75;3.67;;;10.90;78.10;;;;;;5056740;28;20111;-79
2021/06/03 03:45:06;;;;;;;4.00;3.00;;;10.90;78.20;;;;;;5073610;28;20052;-79
2021/06/03 03:47:32;;;;;;;4.15;2.83;;;10.90;75.30;;;;;;5081193;28;20051;-78
2021/06/03 03:49:57;;;;;;;5.22;3.60;;;10.80;74.70;;;;;;5077474;28;20499;-78
2021/06/03 03:52:24;;;;;;;5.65;3.75;;;10.70;76.10;;;;;;5076599;28;20020;-78
2021/06/03 03:54:49;;;;;;;4.90;4.28;;;10.80;77.80;;;;;;5068635;28;20020;-79
2021/06/03 03:57:15;;;;;;;4.70;3.40;;;10.60;79.60;;;;;;5076069;28;20112;-79
2021/06/03 03:59:41;;;;;;;3.80;3.38;;;10.60;79.60;;;;;;5051891;28;20040;-80
2021/06/03 04:02:07;;;;;;;5.43;3.50;;;10.70;79.40;;;;;;5054336;28;20510;-79
2021/06/03 04:04:58;;;;;;;4.90;3.20;;;10.70;78.60;;;;;;5075764;28;20021;-80
2021/06/03 04:07:23;;;;;;;3.42;3.13;;;10.80;77.80;;;;;;5055332;28;20039;-80
2021/06/03 04:09:49;;;;;;;4.68;3.72;;;10.80;77.20;;;;;;5053744;28;20021;-80
2021/06/03 04:12:15;;;;;;;4.47;3.85;;;11.00;77.10;;;;;;5067273;28;20097;-80
2021/06/03 04:14:41;;;;;;;4.60;4.15;;;11.00;77.60;;;;;;5049951;28;20600;-80
2021/06/03 04:17:06;;;;;;;6.97;3.88;;;11.10;77.90;;;;;;5056350;28;20483;-79
2021/06/03 04:19:32;;;;;;;5.28;4.05;;;11.10;79.10;;;;;;5053403;28;20020;-80
2021/06/03 04:21:58;;;;;;;3.85;3.55;;;11.00;79.50;;;;;;5074385;28;20063;-79
2021/06/03 04:24:25;;;;;;;6.60;3.67;;;11.20;78.90;;;;;;5070407;28;20029;-80
2021/06/03 04:26:51;;;;;;;5.18;3.75;;;11.20;79.10;;;;;;5074212;28;20024;-79
2021/06/03 04:29:17;;;;;;;4.53;3.67;;;11.40;78.50;;;;;;5052369;28;20494;-79
2021/06/03 04:31:42;;;;;;;5.30;3.55;;;11.50;78.30;;;;;;5072924;28;20043;-80
2021/06/03 04:34:08;;;;;;;6.60;4.15;;;11.60;80.40;;;;;;5073349;28;20049;-79
2021/06/03 04:36:34;;;;;;;4.88;4.30;;;11.60;79.80;;;;;;5074331;28;20050;-81
2021/06/03 04:38:59;;;;;;;7.03;3.88;;;11.80;79.50;;;;;;5052639;28;20029;-79
2021/06/03 04:41:25;;;;;;;4.85;4.30;;;11.80;79.70;;;;;;5073294;28;20024;-80
2021/06/03 04:43:51;;;;;;;6.72;4.00;;;11.90;79.40;;;;;;5072864;28;20019;-81
2021/06/03 04:46:17;;;;;;;4.32;3.92;;;12.00;79.00;;;;;;5069621;28;20040;-80
2021/06/03 04:48:42;;;;;;;5.50;4.20;;;12.10;78.90;;;;;;5054702;28;20119;-79
2021/06/03 04:51:08;;;;;;;5.45;4.30;;;12.20;77.90;;;;;;5080586;28;20059;-80
2021/06/03 04:53:34;;;;;;;4.95;4.10;;;12.40;77.60;;;;;;5055323;28;20028;-79
2021/06/03 04:56:01;;;;;;;5.97;4.88;;;12.40;77.40;;;;;;5068753;28;20066;-79
2021/06/03 04:58:27;;;;;;;6.35;4.55;;;12.50;77.00;;;;;;5053949;28;20064;-80
2021/06/03 05:00:54;;;;;;;7.45;5.25;;;12.70;77.00;;;;;;5069868;28;20032;-80
2021/06/03 05:03:19;;;;;;;5.60;4.53;;;12.80;78.50;;;;;;5073538;28;20398;-80
2021/06/03 05:05:45;;;;;;;6.43;5.18;;;12.80;78.20;;;;;;5052143;28;20021;-80
2021/06/03 05:08:12;;;;;;;7.65;5.30;;;12.90;79.20;;;;;;5048340;28;20394;-79
2021/06/03 05:10:38;;;;;;;5.63;4.75;;;13.00;77.80;;;;;;5048846;28;20035;-81
2021/06/03 05:13:04;;;;;;;5.57;5.03;;;13.10;76.20;;;;;;5065768;28;20353;-80
2021/06/03 05:15:30;;;;;;;6.68;4.60;;;13.20;76.70;;;;;;5072271;28;20024;-79
2021/06/03 05:17:56;;;;;;;7.45;4.43;;;13.30;75.70;;;;;;5073749;28;20097;-80
2021/06/03 05:20:27;;;;;;;5.28;4.55;;;13.50;74.90;;;;;;5081063;28;20418;-79
2021/06/03 05:22:55;;;;;;;6.35;4.82;;;13.60;75.20;;;;;;5054710;28;20017;-81
2021/06/03 05:25:24;;;;;;;6.80;5.00;;;13.80;75.10;;;;;;5054583;28;20028;-81
2021/06/03 05:27:51;;;;;;;6.00;5.07;;;13.90;76.00;;;;;;5081511;28;20447;-81
2021/06/03 05:30:18;;;;;;;5.18;4.47;;;14.00;76.50;;;;;;5063677;28;20031;-82
2021/06/03 05:32:44;;;;;;;6.18;4.82;;;14.10;75.80;;;;;;5061127;28;20180;-80
2021/06/03 05:35:12;;;;;;;5.88;4.68;;;14.20;76.00;;;;;;5077270;28;20029;-80
2021/06/03 05:37:39;;;;;;;6.22;4.65;;;14.40;76.60;;;;;;5073396;28;20066;-81
2021/06/03 05:40:06;;;;;;;5.95;5.25;;;14.50;76.40;;;;;;5062737;28;20025;-81
2021/06/03 05:42:32;;;;;;;7.47;5.13;;;14.60;76.50;;;;;;5081142;28;20024;-81
2021/06/03 05:44:58;;;;;;;6.35;4.40;;;14.70;75.40;;;;;;5053450;28;20056;-81
2021/06/03 05:47:24;;;;;;;5.70;4.93;;;14.80;75.70;;;;;;5060635;28;20025;-81
2021/06/03 05:49:50;;;;;;;5.65;4.78;;;14.90;75.40;;;;;;5076834;28;20020;-81
2021/06/03 05:52:16;;;;;;;7.13;4.72;;;15.00;75.60;;;;;;5076339;28;20111;-81
2021/06/03 05:54:41;;;;;;;5.15;4.35;;;15.00;76.00;;;;;;5066456;28;20639;-83
2021/06/03 05:57:07;;;;;;;5.25;4.55;;;15.10;76.70;;;;;;5047627;28;20040;-82
2021/06/03 05:59:33;;;;;;;7.47;5.00;;;15.10;77.30;;;;;;5044481;28;20029;-82
2021/06/03 06:02:02;;;;;;;5.25;4.75;;;15.10;77.50;;;;;;5081458;28;20097;-82
2021/06/03 06:06:57;;;;;;;5.65;4.25;;;15.20;77.10;;;;;;5080881;28;20017;-81
2021/06/03 06:09:23;;;;;;;5.60;4.50;;;15.30;76.60;;;;;;5074494;28;20492;-81
2021/06/03 06:11:49;;;;;;;7.63;4.68;;;15.30;77.00;;;;;;5072722;28;20084;-81
2021/06/03 06:14:14;;;;;;;5.35;4.80;;;15.40;79.00;;;;;;5079753;28;20029;-81
2021/06/03 06:16:40;;;;;;;4.90;4.20;;;15.50;78.80;;;;;;5078686;28;20020;-82
2021/06/03 06:19:08;;;;;;;4.93;4.30;;;15.60;77.90;;;;;;5077934;28;20028;-82
2021/06/03 06:21:35;;;;;;;6.55;4.50;;;15.90;79.10;;;;;;5071998;28;20102;-81
2021/06/03 06:24:01;;;;;;;5.32;4.25;;;16.00;76.90;;;;;;5080278;28;20142;-81
2021/06/03 06:26:27;;;;;;;6.32;4.70;;;16.20;76.40;;;;;;5050984;28;20029;-81
2021/06/03 06:28:55;;;;;;;6.05;4.50;;;16.40;75.90;;;;;;5061258;28;20031;-81
2021/06/03 06:31:21;;;;;;;6.63;4.40;;;16.50;74.30;;;;;;5077952;28;20131;-82
2021/06/03 06:33:47;;;;;;;5.65;4.75;;;16.60;73.70;;;;;;5082502;28;20033;-82
2021/06/03 06:36:13;;;;;;;4.95;4.45;;;16.80;73.50;;;;;;5046666;28;20039;-79
2021/06/03 06:38:40;;;;;;;5.47;4.47;;;16.90;73.40;;;;;;5071695;28;20055;-81
2021/06/03 06:41:07;;;;;;;5.78;4.40;;;17.00;73.50;;;;;;5086051;28;20021;-82
2021/06/03 06:43:34;;;;;;;5.43;4.80;;;17.10;72.40;;;;;;5075726;28;20032;-82
2021/06/03 06:46:01;;;;;;;5.57;4.65;;;17.10;72.40;;;;;;5050914;28;20399;-81
2021/06/03 06:48:27;;;;;;;5.95;4.97;;;17.30;73.20;;;;;;5071709;28;20024;-79
2021/06/03 06:50:52;;;;;;;5.63;4.47;;;17.40;73.00;;;;;;5053403;28;20032;-79
2021/06/03 06:53:19;;;;;;;8.10;5.85;;;17.50;72.50;;;;;;5084053;28;20505;-80
2021/06/03 06:55:46;;;;;;;6.00;4.45;;;17.70;72.10;;;;;;5058578;28;20032;-80
2021/06/03 06:58:12;;;;;;;4.32;3.90;;;17.80;70.70;;;;;;5056587;28;20127;-79
2021/06/03 07:00:40;;;;;;;4.82;4.05;;;17.90;70.00;;;;;;5074952;28;20557;-79
2021/06/03 07:03:08;;;;;;;7.38;4.55;;;18.00;69.70;;;;;;5076453;28;20451;-81
2021/06/03 07:05:36;;;;;;;5.43;4.18;;;18.20;68.90;;;;;;5068831;28;20032;-83
2021/06/03 07:08:01;;;;;;;6.23;4.27;;;18.30;69.60;;;;;;5054709;28;20435;-81
2021/06/03 07:10:27;;;;;;;6.25;4.03;;;18.40;67.90;;;;;;5075425;28;20028;-81
2021/06/03 07:12:53;;;;;;;5.47;4.22;;;18.50;67.40;;;;;;5064240;28;20502;-79
2021/06/03 07:15:20;;;;;;;6.70;4.30;;;18.60;68.00;;;;;;5054107;28;20114;-81
2021/06/03 07:17:46;;;;;;;6.82;3.90;;;18.70;67.80;;;;;;5053672;28;20017;-82
2021/06/03 07:20:15;;;;;;;7.55;4.40;;;18.90;67.40;;;;;;5056882;28;20021;-82
2021/06/03 07:22:45;;;;;;;4.93;4.38;;;19.00;66.50;;;;;;5066328;28;20080;-81
2021/06/03 07:25:12;;;;;;;4.28;3.88;;;19.10;65.90;;;;;;5056377;28;20024;-82
2021/06/03 07:27:39;;;;;;;4.15;3.75;;;19.20;65.90;;;;;;5072028;28;20027;-79
2021/06/03 07:30:07;;;;;;;6.65;3.80;;;19.30;65.60;;;;;;5049579;28;20036;-78
2021/06/03 07:32:34;;;;;;;5.60;4.15;;;19.30;65.10;;;;;;5050558;28;20037;-77
2021/06/03 07:35:00;;;;;;;4.40;4.00;;;19.40;62.90;;;;;;5074532;28;20074;-77
2021/06/03 07:37:27;;;;;;;4.75;4.28;;;19.50;64.00;;;;;;5048128;28;20044;-78
2021/06/03 07:39:52;;;;;;;4.47;3.88;;;19.50;64.10;;;;;;5067716;28;20509;-77
2021/06/03 07:42:18;;;;;;;6.10;3.78;;;19.60;61.80;;;;;;5068017;28;20016;-78
2021/06/03 07:44:46;;;;;;;8.32;4.32;;;19.60;62.80;;;;;;5070916;28;20031;-78
2021/06/03 07:47:12;;;;;;;5.28;4.13;;;19.70;62.80;;;;;;5072320;28;20476;-78
2021/06/03 07:49:38;;;;;;;5.88;3.83;;;19.90;63.10;;;;;;5069906;28;20034;-78
2021/06/03 07:52:04;;;;;;;6.05;3.85;;;20.00;62.40;;;;;;5046877;28;20029;-78
2021/06/03 07:54:30;;;;;;;5.28;3.70;;;20.10;62.00;;;;;;5041531;28;20512;-77
2021/06/03 07:56:57;;;;;;;3.90;3.47;;;20.20;60.70;;;;;;5073449;28;20465;-78
2021/06/03 07:59:22;;;;;;;4.10;3.70;;;20.30;61.40;;;;;;5065185;28;20025;-78
2021/06/03 08:01:48;;;;;;;3.53;3.22;;;20.30;59.70;;;;;;5069952;28;20090;-77
2021/06/03 08:04:14;;;;;;;4.38;3.85;;;20.40;60.90;;;;;;5074403;28;20104;-77
2021/06/03 08:06:40;;;;;;;5.53;3.92;;;20.50;58.70;;;;;;5054682;28;20535;-78
2021/06/03 08:09:05;;;;;;;4.57;3.58;;;20.50;58.90;;;;;;5073850;28;20683;-77
2021/06/03 08:11:32;;;;;;;4.10;3.70;;;20.60;58.30;;;;;;5073530;28;20025;-77
2021/06/03 08:13:58;;;;;;;5.63;4.05;;;20.60;57.50;;;;;;5069938;28;20028;-78
2021/06/03 08:16:24;;;;;;;4.55;3.85;;;20.70;57.50;;;;;;5066338;28;20155;-77
2021/06/03 08:18:50;;;;;;;4.50;3.70;;;20.70;55.40;;;;;;5064128;28;20025;-77
2021/06/03 08:21:16;;;;;;;6.53;3.65;;;20.80;57.90;;;;;;5067470;28;20021;-78
2021/06/03 08:23:42;;;;;;;4.47;3.83;;;20.90;56.40;;;;;;5074117;28;20304;-78
2021/06/03 08:26:07;;;;;;;4.72;3.47;;;21.00;55.60;;;;;;5071638;28;20039;-78
2021/06/03 08:28:33;;;;;;;6.13;3.88;;;21.20;56.00;;;;;;5066737;28;20020;-78
2021/06/03 08:31:00;;;;;;;5.57;3.80;;;21.30;56.10;;;;;;5059537;28;20052;-80
2021/06/03 08:33:27;;;;;;;4.22;3.58;;;21.40;54.60;;;;;;5060798;28;20025;-81
2021/06/03 08:35:54;;;;;;;4.25;3.42;;;21.60;54.50;;;;;;5057860;28;20025;-81
2021/06/03 08:38:20;;;;;;;3.85;3.25;;;21.60;52.10;;;;;;5050063;28;20074;-80
2021/06/03 08:40:52;;;;;;;7.05;3.75;;;21.60;52.90;;;;;;5065443;28;20058;-81
2021/06/03 08:43:20;;;;;;;9.93;4.65;;;21.70;53.00;;;;;;5047939;28;20039;-80
2021/06/03 08:45:47;;;;;;;5.72;3.78;;;21.70;53.30;;;;;;5063569;28;20016;-80
2021/06/03 08:48:13;;;;;;;4.07;3.60;;;21.70;53.40;;;;;;5061508;28;20051;-80
2021/06/03 08:50:47;;;;;;;5.50;3.35;;;21.80;53.80;;;;;;5043368;28;20039;-80
2021/06/03 08:53:13;;;;;;;5.05;3.60;;;22.00;54.00;;;;;;5044961;28;20115;-80
2021/06/03 08:58:26;;;;;;;3.47;3.15;;;22.20;52.90;;;;;;5064381;28;20034;-83
2021/06/03 09:00:53;;;;;;;4.00;3.47;;;22.40;52.90;;;;;;5064937;28;20059;-82
2021/06/03 09:03:18;;;;;;;3.85;3.47;;;22.30;52.10;;;;;;5066673;28;20032;-83
2021/06/03 09:05:45;;;;;;;6.93;3.55;;;22.30;51.00;;;;;;5063710;28;20387;-83
2021/06/03 09:08:21;;;;;;;3.60;3.30;;;22.40;50.30;;;;;;5047867;28;20170;-83
2021/06/03 09:10:51;;;;;;;4.93;3.15;;;22.60;50.90;;;;;;5045268;28;20020;-82
2021/06/03 09:13:24;;;;;;;5.45;3.63;;;22.60;49.00;;;;;;5063688;28;20993;-84
2021/06/03 09:15:53;;;;;;;3.72;3.20;;;22.80;49.30;;;;;;5045620;28;20108;-80
2021/06/03 09:18:35;;;;;;;4.38;2.92;;;22.80;45.50;;;;;;5045972;28;20147;-80
2021/06/03 09:21:19;;;;;;;4.68;3.42;;;22.90;46.70;;;;;;5059614;28;20057;-81
2021/06/03 09:23:59;;;;;;;4.90;3.42;;;23.00;46.80;;;;;;5050681;28;20089;-82
2021/06/03 09:26:29;;;;;;;6.70;3.42;;;23.00;46.90;;;;;;5048203;28;20029;-81
2021/06/03 09:28:56;;;;;;;3.40;3.10;;;23.00;46.30;;;;;;5055419;28;20029;-82
2021/06/03 09:31:34;;;;;;;4.05;3.53;;;23.00;46.40;;;;;;5058846;28;20122;-81
2021/06/03 09:34:14;;;;;;;6.10;3.15;;;23.10;46.60;;;;;;5039983;28;20036;-80
2021/06/03 09:36:46;;;;;;;5.05;3.38;;;23.10;45.80;;;;;;5039491;28;20032;-80
2021/06/03 09:39:16;;;;;;;3.75;3.10;;;23.20;45.20;;;;;;5045718;28;20060;-80
2021/06/03 09:42:07;;;;;;;3.95;3.20;;;23.10;45.00;;;;;;5041055;28;20028;-80
2021/06/03 09:44:35;;;;;;;5.97;3.30;;;23.20;46.10;;;;;;5041038;28;20060;-81
2021/06/03 09:47:01;;;;;;;3.60;3.30;;;23.20;46.60;;;;;;5056102;28;20024;-79
2021/06/03 09:49:33;;;;;;;12.82;3.72;;;23.40;47.10;;;;;;5054914;28;20106;-81
2021/06/03 09:52:03;;;;;;;3.95;3.00;;;23.40;46.70;;;;;;5042829;28;20033;-79
2021/06/03 09:54:30;;;;;;;8.75;3.70;;;23.60;46.70;;;;;;5048129;28;20036;-81
2021/06/03 09:57:01;;;;;;;3.50;3.20;;;23.70;47.30;;;;;;5044317;28;20056;-81
2021/06/03 09:59:34;;;;;;;4.13;3.28;;;23.90;46.50;;;;;;5061996;28;20555;-80
2021/06/03 10:02:08;;;;;;;4.40;3.15;;;24.00;46.30;;;;;;5048715;28;20033;-81
2021/06/03 10:04:37;;;;;;;4.93;3.08;;;24.10;46.50;;;;;;5052366;28;20024;-80
2021/06/03 10:07:14;;;;;;;4.63;2.92;;;24.00;47.40;;;;;;5065243;28;20027;-81
2021/06/03 10:09:49;;;;;;;3.33;3.00;;;24.10;46.00;;;;;;5060474;28;20021;-80
2021/06/03 10:12:24;;;;;;;3.10;2.80;;;24.20;47.50;;;;;;5063372;28;20033;-79
2021/06/03 10:14:55;;;;;;;7.05;3.17;;;24.30;46.50;;;;;;5042138;28;20040;-79
2021/06/03 10:17:22;;;;;;;3.25;2.95;;;24.30;47.20;;;;;;5062847;28;20029;-81
2021/06/03 10:19:51;;;;;;;3.40;3.10;;;24.30;46.90;;;;;;5061685;28;20036;-80
2021/06/03 10:22:21;;;;;;;3.33;3.03;;;24.30;45.10;;;;;;5063285;28;20028;-79
2021/06/03 10:24:49;;;;;;;3.53;3.22;;;24.20;43.90;;;;;;5059277;28;20020;-80
2021/06/03 10:27:16;;;;;;;4.30;3.13;;;24.30;45.00;;;;;;5066545;28;20036;-79
2021/06/03 10:29:43;;;;;;;3.88;3.15;;;24.30;45.70;;;;;;5060895;28;20036;-81
2021/06/03 10:32:08;;;;;;;3.35;2.97;;;24.30;46.00;;;;;;5070880;28;20041;-82
2021/06/03 10:34:35;;;;;;;3.60;3.10;;;24.30;43.80;;;;;;5049298;28;20535;-83
2021/06/03 10:37:01;;;;;;;3.85;3.10;;;24.40;45.20;;;;;;5072133;28;20032;-81
2021/06/03 10:39:29;;;;;;;4.00;3.20;;;24.50;45.00;;;;;;5048554;28;20479;-81
2021/06/03 10:41:55;;;;;;;3.85;3.20;;;24.60;43.60;;;;;;5058805;28;20108;-80
2021/06/03 10:44:21;;;;;;;3.50;3.20;;;24.60;42.10;;;;;;5040309;28;20120;-82
2021/06/03 10:46:46;;;;;;;3.05;2.75;;;24.70;42.30;;;;;;5040126;28;20079;-81
2021/06/03 10:49:15;;;;;;;4.57;2.85;;;24.60;41.60;;;;;;5052624;28;20032;-83
2021/06/03 10:51:42;;;;;;;3.17;2.88;;;24.50;41.90;;;;;;5040730;28;20029;-81
2021/06/03 10:54:08;;;;;;;3.42;3.13;;;24.50;44.00;;;;;;5043241;28;20103;-82
2021/06/03 10:56:34;;;;;;;5.13;3.13;;;24.60;44.50;;;;;;5062797;28;20120;-82
2021/06/03 10:59:04;;;;;;;3.75;3.30;;;24.60;41.80;;;;;;5048521;28;20035;-82
2021/06/03 11:01:34;;;;;;;3.50;3.20;;;24.60;44.10;;;;;;5046234;28;20135;-83
2021/06/03 11:04:02;;;;;;;4.20;3.33;;;24.50;44.40;;;;;;5067632;28;20052;-83
2021/06/03 11:06:32;;;;;;;4.18;3.78;;;24.40;44.40;;;;;;5046045;28;20044;-84
2021/06/03 11:09:00;;;;;;;3.88;3.58;;;24.50;46.00;;;;;;5059743;28;20039;-83
2021/06/03 11:11:33;;;;;;;3.50;3.20;;;24.50;46.60;;;;;;5063480;28;20020;-82
2021/06/03 11:14:03;;;;;;;3.83;3.45;;;24.50;44.80;;;;;;5048193;28;20045;-83
2021/06/03 11:16:35;;;;;;;4.10;3.30;;;24.50;45.50;;;;;;5040996;28;20123;-82
2021/06/03 11:19:00;;;;;;;4.90;3.22;;;24.60;45.70;;;;;;5038222;28;20082;-83
2021/06/03 11:21:32;;;;;;;5.45;4.35;;;24.70;46.00;;;;;;5040511;28;20160;-82
2021/06/03 11:24:07;;;;;;;5.78;3.65;;;24.70;43.80;;;;;;5056113;28;20075;-82
2021/06/03 11:26:42;;;;;;;5.18;3.25;;;24.70;44.60;;;;;;5039194;28;20505;-84
2021/06/03 11:29:12;;;;;;;5.43;3.35;;;24.70;44.80;;;;;;5049001;28;20115;-78
2021/06/03 11:31:46;;;;;;;6.68;3.00;;;24.70;42.20;;;;;;5060208;28;20044;-78
2021/06/03 11:34:12;;;;;;;3.42;3.13;;;24.70;43.20;;;;;;5047408;28;20040;-77
2021/06/03 11:36:40;;;;;;;3.60;3.30;;;24.70;44.70;;;;;;5063652;28;20286;-78
2021/06/03 11:39:27;;;;;;;4.13;3.55;;;24.70;43.00;;;;;;5048540;28;20130;-78
2021/06/03 11:41:53;;;;;;;5.28;3.00;;;24.50;45.00;;;;;;5046078;28;20029;-76
2021/06/03 11:44:19;;;;;;;4.20;2.78;;;24.50;42.90;;;;;;5072623;28;20632;-78
2021/06/03 11:46:50;;;;;;;3.78;3.13;;;24.50;43.50;;;;;;5073057;28;20021;-74
2021/06/03 11:49:36;;;;;;;4.40;3.20;;;24.30;44.50;;;;;;5073539;28;20024;-77
2021/06/03 11:52:19;;;;;;;5.38;3.10;;;24.20;43.30;;;;;;5074749;28;20379;-79
2021/06/03 11:55:17;;;;;;;3.88;3.20;;;24.30;45.40;;;;;;5076311;28;20101;-77
2021/06/03 11:57:43;;;;;;;3.25;2.95;;;24.60;45.30;;;;;;5038296;28;20051;-77
2021/06/03 12:00:13;;;;;;;3.85;2.97;;;24.70;44.00;;;;;;5067984;28;20029;-73
2021/06/03 12:02:44;;;;;;;4.50;3.42;;;24.80;43.30;;;;;;5069919;28;20056;-77
2021/06/03 12:05:12;;;;;;;7.00;2.90;;;24.80;43.90;;;;;;5073313;28;20016;-76
2021/06/03 12:07:47;;;;;;;3.50;3.20;;;24.90;41.80;;;;;;5072792;28;20263;-76
2021/06/03 12:10:29;;;;;;;3.90;3.30;;;24.90;42.40;;;;;;5072691;28;20036;-77
2021/06/03 12:12:55;;;;;;;5.30;2.92;;;25.20;44.80;;;;;;5072340;28;20026;-78
2021/06/03 12:15:23;;;;;;;3.40;3.10;;;25.10;43.30;;;;;;5072250;28;20562;-75
2021/06/03 12:17:58;;;;;;;3.60;3.30;;;25.20;43.00;;;;;;5072711;28;20029;-77
2021/06/03 12:20:26;;;;;;;3.20;2.88;;;25.20;41.20;;;;;;5072138;28;20029;-76
2021/06/03 12:22:53;;;;;;;3.28;2.97;;;25.10;41.40;;;;;;5071731;28;20099;-77
2021/06/03 12:25:19;;;;;;;3.08;2.70;;;25.20;41.30;;;;;;5072012;28;20028;-77
2021/06/03 12:27:47;;;;;;;3.00;2.80;;;25.20;41.70;;;;;;5072973;28;20020;-77
2021/06/03 12:30:23;;;;;;;3.30;2.85;;;25.20;42.00;;;;;;5069984;28;20451;-81
2021/06/03 12:33:25;;;;;;;3.13;2.92;;;25.10;40.80;;;;;;5044161;28;20032;-76
2021/06/03 12:35:59;;;;;;;3.00;2.80;;;25.10;39.40;;;;;;5059785;28;20414;-77
2021/06/03 12:38:30;;;;;;;3.13;2.63;;;25.20;42.60;;;;;;5056797;28;20029;-78
2021/06/03 12:41:05;;;;;;;5.32;3.15;;;25.20;41.60;;;;;;5058214;28;20104;-78
2021/06/03 12:43:42;;;;;;;3.55;2.72;;;25.10;42.50;;;;;;5060414;28;20024;-76
2021/06/03 12:46:09;;;;;;;3.40;3.10;;;25.10;40.80;;;;;;5057118;28;20266;-76
2021/06/03 12:48:35;;;;;;;3.97;3.10;;;25.00;41.50;;;;;;5062860;28;20478;-77
2021/06/03 12:51:07;;;;;;;3.28;2.97;;;25.20;42.60;;;;;;5061672;28;20046;-80
2021/06/03 12:53:33;;;;;;;3.45;3.15;;;25.20;42.00;;;;;;5067396;28;20012;-80
2021/06/03 12:56:09;;;;;;;3.92;3.15;;;25.30;44.00;;;;;;5059506;28;20035;-77
2021/06/03 12:58:35;;;;;;;3.65;3.30;;;25.20;43.30;;;;;;5070394;28;20108;-78